createdAt,value
2023-01-12T00:00:01.182Z,86.45
2023-01-12T00:05:00.509Z,86.02
2023-01-12T00:10:00.543Z,85.90
2023-01-12T00:15:00.524Z,86.66
2023-01-12T00:20:00.505Z,87.10
2023-01-12T00:25:00.536Z,87.30
2023-01-12T00:30:00.538Z,88.19
2023-01-12T00:35:00.513Z,88.67
2023-01-12T00:40:03.117Z,88.77
2023-01-12T00:45:00.527Z,89.42
2023-01-12T00:50:00.566Z,90.14
2023-01-12T00:55:00.550Z,90.28
2023-01-12T01:00:02.191Z,89.73
2023-01-12T01:05:00.562Z,90.74
2023-01-12T01:10:00.578Z,90.64
2023-01-12T01:15:00.553Z,91.04
2023-01-12T01:20:00.566Z,91.43
2023-01-12T01:25:00.509Z,92.07
2023-01-12T01:30:00.530Z,92.21
2023-01-12T01:35:00.502Z,92.51
2023-01-12T01:40:00.524Z,92.73
2023-01-12T01:45:03.634Z,93.09
2023-01-12T01:50:03.852Z,93.20
2023-01-12T01:55:05.305Z,92.49
2023-01-12T02:00:04.396Z,92.84
2023-01-12T02:05:00.701Z,92.58
2023-01-12T02:10:01.142Z,91.73
2023-01-12T02:15:00.616Z,91.20
2023-01-12T02:20:20.432Z,91.63
2023-01-12T02:25:20.409Z,92.67
2023-01-12T02:30:13.704Z,91.52
2023-01-12T02:35:20.438Z,91.07
2023-01-12T02:40:08.532Z,91.64
2023-01-12T02:45:10.458Z,92.03
2023-01-12T02:50:05.892Z,91.64
2023-01-12T02:55:03.511Z,91.32
2023-01-12T03:00:04.199Z,91.75
2023-01-12T03:05:00.537Z,91.98
2023-01-12T03:10:17.968Z,91.88
2023-01-12T03:15:05.842Z,91.80
2023-01-12T03:20:08.723Z,92.24
2023-01-12T03:25:08.915Z,92.53
2023-01-12T03:30:05.787Z,92.51
2023-01-12T03:35:01.092Z,92.57
2023-01-12T03:40:08.846Z,92.67
2023-01-12T03:45:20.431Z,92.97
2023-01-12T03:50:05.147Z,93.00
2023-01-12T03:55:03.317Z,92.42
2023-01-12T04:00:04.260Z,91.75
2023-01-12T04:05:00.514Z,92.00
2023-01-12T04:10:00.537Z,92.43
2023-01-12T04:15:00.559Z,92.28
2023-01-12T04:20:00.523Z,92.03
2023-01-12T04:25:00.612Z,92.13
2023-01-12T04:30:00.518Z,92.17
2023-01-12T04:35:00.514Z,91.78
2023-01-12T04:40:00.541Z,91.95
2023-01-12T04:45:00.551Z,91.94
2023-01-12T04:50:00.602Z,91.93
2023-01-12T04:55:00.609Z,91.30
2023-01-12T05:00:01.209Z,90.96
2023-01-12T05:05:00.519Z,91.76
2023-01-12T05:10:00.552Z,91.72
2023-01-12T05:15:00.556Z,91.94
2023-01-12T05:20:01.063Z,91.93
2023-01-12T05:25:00.524Z,92.10
2023-01-12T05:30:00.564Z,91.71
2023-01-12T05:35:00.522Z,92.14
2023-01-12T05:40:00.536Z,92.31
2023-01-12T05:45:00.514Z,92.48
2023-01-12T05:50:00.659Z,92.01
2023-01-12T05:55:00.696Z,92.49
2023-01-12T06:00:02.600Z,92.25
2023-01-12T06:05:00.618Z,92.61
2023-01-12T06:10:00.565Z,92.75
2023-01-12T06:15:00.512Z,93.04
2023-01-12T06:20:00.536Z,93.03
2023-01-12T06:25:00.566Z,92.97
2023-01-12T06:30:00.736Z,93.22
2023-01-12T06:35:07.139Z,93.17
2023-01-12T06:40:00.530Z,93.57
2023-01-12T06:45:01.319Z,93.61
2023-01-12T06:50:00.534Z,93.36
2023-01-12T06:55:00.524Z,93.51
2023-01-12T07:00:01.207Z,93.68
2023-01-12T07:05:00.537Z,93.94
2023-01-12T07:10:00.549Z,94.24
2023-01-12T07:15:00.540Z,94.17
2023-01-12T07:20:00.505Z,94.34
2023-01-12T07:25:00.538Z,94.17
2023-01-12T07:30:00.515Z,94.06
2023-01-12T07:35:00.536Z,94.23
2023-01-12T07:40:00.546Z,94.14
2023-01-12T07:45:00.525Z,94.60
2023-01-12T07:50:00.772Z,94.47
2023-01-12T07:55:00.598Z,94.60
2023-01-12T08:00:01.335Z,94.75
2023-01-12T08:05:00.657Z,94.62
2023-01-12T08:10:00.531Z,94.55
2023-01-12T08:15:00.931Z,94.39
2023-01-12T08:20:08.472Z,94.33
2023-01-12T08:25:05.340Z,94.50
2023-01-12T08:30:00.617Z,94.41
2023-01-12T08:35:03.231Z,94.48
2023-01-12T08:40:01.915Z,94.64
2023-01-12T08:45:00.529Z,94.59
2023-01-12T08:50:00.656Z,95.33
2023-01-12T08:55:00.698Z,95.13
2023-01-12T09:00:02.455Z,95.51
2023-01-12T09:05:00.517Z,95.67
2023-01-12T09:10:00.529Z,95.80
2023-01-12T09:15:00.530Z,95.95
2023-01-12T09:20:00.560Z,95.78
2023-01-12T09:25:00.508Z,95.72
2023-01-12T09:30:00.523Z,95.86
2023-01-12T09:35:00.555Z,95.46
2023-01-12T09:40:00.529Z,95.46
2023-01-12T09:45:02.434Z,95.55
2023-01-12T09:50:10.998Z,95.83
2023-01-12T09:55:00.590Z,96.01
2023-01-12T10:00:03.223Z,95.93
2023-01-12T10:05:05.714Z,96.13
2023-01-12T10:10:00.631Z,96.00
2023-01-12T10:15:20.406Z,95.86
2023-01-12T10:20:18.279Z,96.05
2023-01-12T10:25:00.569Z,95.93
2023-01-12T10:30:01.154Z,95.93
2023-01-12T10:35:00.541Z,96.07
2023-01-12T10:40:02.996Z,96.26
2023-01-12T10:45:15.087Z,95.98
2023-01-12T10:50:20.501Z,96.00
2023-01-12T10:55:00.877Z,95.85
2023-01-12T11:00:02.134Z,95.85
2023-01-12T11:05:00.559Z,95.89
2023-01-12T11:10:19.404Z,95.75
2023-01-12T11:15:04.049Z,95.12
2023-01-12T11:20:03.576Z,95.61
2023-01-12T11:25:06.365Z,95.66
2023-01-12T11:30:20.410Z,95.53
2023-01-12T11:35:20.423Z,95.86
2023-01-12T11:40:07.900Z,96.07
2023-01-12T11:45:14.413Z,96.10
2023-01-12T11:50:10.307Z,95.80
2023-01-12T11:55:01.426Z,95.69
2023-01-12T12:00:20.546Z,95.71
2023-01-12T12:05:01.545Z,95.78
2023-01-12T12:10:20.408Z,95.91
2023-01-12T12:15:19.085Z,95.90
2023-01-12T12:20:03.806Z,95.91
2023-01-12T12:25:10.463Z,96.00
2023-01-12T12:30:08.882Z,96.24
2023-01-12T12:35:14.967Z,96.39
2023-01-12T12:40:01.573Z,96.53
2023-01-12T12:45:18.564Z,96.17
2023-01-12T12:50:01.842Z,96.00
2023-01-12T12:55:02.409Z,96.07
2023-01-12T13:00:02.007Z,96.02
2023-01-12T13:05:05.061Z,95.86
2023-01-12T13:10:09.046Z,95.75
2023-01-12T13:15:13.710Z,95.69
2023-01-12T13:20:01.452Z,95.30
2023-01-12T13:25:12.384Z,94.96
2023-01-12T13:30:19.193Z,95.21
2023-01-12T13:35:01.402Z,94.99
2023-01-12T13:40:15.903Z,94.68
2023-01-12T13:45:01.599Z,94.92
2023-01-12T13:50:01.911Z,94.82
2023-01-12T13:55:01.746Z,94.84
2023-01-12T14:00:06.162Z,94.97
2023-01-12T14:05:17.460Z,95.03
2023-01-12T14:10:19.915Z,94.88
2023-01-12T14:15:04.910Z,95.17
2023-01-12T14:20:00.504Z,94.91
2023-01-12T14:25:12.631Z,94.75
2023-01-12T14:30:00.551Z,94.72
2023-01-12T14:35:00.595Z,94.75
2023-01-12T14:40:00.559Z,94.50
2023-01-12T14:45:00.696Z,94.40
2023-01-12T14:50:11.468Z,94.58
2023-01-12T14:55:17.939Z,94.51
2023-01-12T15:00:02.978Z,94.73
2023-01-12T15:05:04.313Z,94.82
2023-01-12T15:10:12.703Z,94.77
2023-01-12T15:15:13.572Z,94.90
2023-01-12T15:20:00.512Z,95.11
2023-01-12T15:25:01.043Z,95.13
2023-01-12T15:30:00.592Z,94.85
2023-01-12T15:35:01.447Z,95.09
2023-01-12T15:40:00.502Z,95.13
2023-01-12T15:45:00.543Z,95.08
2023-01-12T15:50:00.546Z,95.10
2023-01-12T15:55:00.556Z,94.99
2023-01-12T16:00:01.258Z,95.14
2023-01-12T16:05:01.575Z,95.24
2023-01-12T16:10:00.541Z,95.28
2023-01-12T16:15:00.545Z,95.29
2023-01-12T16:20:00.631Z,95.20
2023-01-12T16:25:00.551Z,94.98
2023-01-12T16:30:00.755Z,94.75
2023-01-12T16:35:00.577Z,95.06
2023-01-12T16:40:00.778Z,94.81
2023-01-12T16:45:00.573Z,95.04
2023-01-12T16:50:00.667Z,94.86
2023-01-12T16:55:00.520Z,95.00
2023-01-12T17:00:03.204Z,94.85
2023-01-12T17:05:00.554Z,94.64
2023-01-12T17:10:00.933Z,94.77
2023-01-12T17:15:00.518Z,94.58
2023-01-12T17:20:00.618Z,95.04
2023-01-12T17:25:00.548Z,95.47
2023-01-12T17:30:00.514Z,95.38
2023-01-12T17:35:00.519Z,95.20
2023-01-12T17:40:00.606Z,95.05
2023-01-12T17:45:00.874Z,95.21
2023-01-12T17:50:00.692Z,94.61
2023-01-12T17:55:00.577Z,94.39
2023-01-12T18:00:02.652Z,94.22
2023-01-12T18:05:00.610Z,94.25
2023-01-12T18:10:00.874Z,94.03
2023-01-12T18:15:00.508Z,94.02
2023-01-12T18:20:00.563Z,93.73
2023-01-12T18:25:00.574Z,94.07
2023-01-12T18:30:00.762Z,93.87
2023-01-12T18:35:00.535Z,94.02
2023-01-12T18:40:00.514Z,93.48
2023-01-12T18:45:00.526Z,93.65
2023-01-12T18:50:00.562Z,93.24
2023-01-12T18:55:01.254Z,93.01
2023-01-12T19:00:04.143Z,92.37
2023-01-12T19:05:00.509Z,92.74
2023-01-12T19:10:00.723Z,92.64
2023-01-12T19:15:00.532Z,92.49
2023-01-12T19:20:05.136Z,92.55
2023-01-12T19:25:00.658Z,92.23
2023-01-12T19:30:00.573Z,92.11
2023-01-12T19:35:10.413Z,92.30
2023-01-12T19:40:01.220Z,91.98
2023-01-12T19:45:00.608Z,92.07
2023-01-12T19:50:00.564Z,92.17
2023-01-12T19:55:00.852Z,93.15
2023-01-12T20:00:05.278Z,93.32
2023-01-12T20:05:00.509Z,94.17
2023-01-12T20:10:00.544Z,94.22
2023-01-12T20:15:00.562Z,94.24
2023-01-12T20:20:01.028Z,93.97
2023-01-12T20:25:00.877Z,93.73
2023-01-12T20:30:01.820Z,93.20
2023-01-12T20:35:02.921Z,92.54
2023-01-12T20:40:01.581Z,92.33
2023-01-12T20:45:01.364Z,91.96
2023-01-12T20:50:04.695Z,91.82
2023-01-12T20:55:00.613Z,90.94
2023-01-12T21:00:02.602Z,91.28
2023-01-12T21:05:00.607Z,90.79
2023-01-12T21:10:00.510Z,91.10
2023-01-12T21:15:00.544Z,91.61
2023-01-12T21:20:00.518Z,92.52
2023-01-12T21:25:00.574Z,92.27
2023-01-12T21:30:00.670Z,92.21
2023-01-12T21:35:00.525Z,91.63
2023-01-12T21:40:00.558Z,91.17
2023-01-12T21:45:00.563Z,90.61
2023-01-12T21:50:00.537Z,89.03
2023-01-12T21:55:00.560Z,88.57
2023-01-12T22:00:01.193Z,88.11
2023-01-12T22:05:00.765Z,88.39
2023-01-12T22:10:00.602Z,88.47
2023-01-12T22:15:00.539Z,88.36
2023-01-12T22:20:00.534Z,88.58
2023-01-12T22:25:00.496Z,88.08
2023-01-12T22:30:01.511Z,87.72
2023-01-12T22:35:00.597Z,87.25
2023-01-12T22:40:00.626Z,87.19
2023-01-12T22:45:00.534Z,87.22
2023-01-12T22:50:00.571Z,86.83
2023-01-12T22:55:00.725Z,86.18
2023-01-12T23:00:01.104Z,85.57
2023-01-12T23:05:00.689Z,84.95
2023-01-12T23:10:00.588Z,84.76
2023-01-12T23:15:00.546Z,83.85
2023-01-12T23:20:00.581Z,83.76
2023-01-12T23:25:00.545Z,83.14
2023-01-12T23:30:00.537Z,82.92
2023-01-12T23:35:00.581Z,82.72
2023-01-12T23:40:00.595Z,81.31
2023-01-12T23:45:00.549Z,82.15
2023-01-12T23:50:00.634Z,82.37
2023-01-12T23:55:00.625Z,81.53
